sensor_id;sensor_type;location;lat;lon;timestamp;P1;durP1;ratioP1;P2;durP2;ratioP2
22565;SDS011;11449;51.330;19.378;2023-10-19T00:04:17;330.90;;;178.30;;
22565;SDS011;11449;51.330;19.378;2023-10-19T00:09:24;250.60;;;140.20;;
22565;SDS011;11449;51.330;19.378;2023-10-19T00:14:33;307.60;;;188.80;;
22565;SDS011;11449;51.330;19.378;2023-10-19T00:19:42;343.90;;;216.30;;
22565;SDS011;11449;51.330;19.378;2023-10-19T00:25:05;318.20;;;214.80;;
22565;SDS011;11449;51.330;19.378;2023-10-19T00:30:15;383.80;;;159.20;;
22565;SDS011;11449;51.330;19.378;2023-10-19T00:35:26;234.90;;;119.00;;
22565;SDS011;11449;51.330;19.378;2023-10-19T00:40:41;294.50;;;169.60;;
22565;SDS011;11449;51.330;19.378;2023-10-19T00:45:54;286.40;;;189.60;;
22565;SDS011;11449;51.330;19.378;2023-10-19T00:51:02;291.40;;;184.70;;
22565;SDS011;11449;51.330;19.378;2023-10-19T00:56:14;334.90;;;253.00;;
22565;SDS011;11449;51.330;19.378;2023-10-19T01:01:28;386.80;;;295.10;;
22565;SDS011;11449;51.330;19.378;2023-10-19T01:06:36;402.10;;;296.60;;
22565;SDS011;11449;51.330;19.378;2023-10-19T01:11:44;371.40;;;271.80;;
22565;SDS011;11449;51.330;19.378;2023-10-19T01:16:53;378.60;;;307.50;;
22565;SDS011;11449;51.330;19.378;2023-10-19T01:22:04;370.20;;;292.20;;
22565;SDS011;11449;51.330;19.378;2023-10-19T01:27:12;359.40;;;289.20;;
22565;SDS011;11449;51.330;19.378;2023-10-19T01:32:21;353.90;;;288.40;;
22565;SDS011;11449;51.330;19.378;2023-10-19T01:37:30;346.10;;;272.70;;
22565;SDS011;11449;51.330;19.378;2023-10-19T01:42:38;419.10;;;331.80;;
22565;SDS011;11449;51.330;19.378;2023-10-19T01:47:46;434.00;;;342.30;;
22565;SDS011;11449;51.330;19.378;2023-10-19T01:52:54;410.40;;;326.00;;
22565;SDS011;11449;51.330;19.378;2023-10-19T01:58:02;434.50;;;350.20;;
22565;SDS011;11449;51.330;19.378;2023-10-19T02:03:11;554.30;;;492.50;;
22565;SDS011;11449;51.330;19.378;2023-10-19T02:08:18;482.80;;;412.50;;
22565;SDS011;11449;51.330;19.378;2023-10-19T02:13:30;439.80;;;348.40;;
22565;SDS011;11449;51.330;19.378;2023-10-19T02:18:38;368.70;;;272.60;;
22565;SDS011;11449;51.330;19.378;2023-10-19T02:23:45;347.90;;;268.70;;
22565;SDS011;11449;51.330;19.378;2023-10-19T02:28:53;322.90;;;224.40;;
22565;SDS011;11449;51.330;19.378;2023-10-19T02:34:03;405.20;;;324.50;;
22565;SDS011;11449;51.330;19.378;2023-10-19T02:39:12;232.40;;;99.70;;
22565;SDS011;11449;51.330;19.378;2023-10-19T02:44:21;271.20;;;139.50;;
22565;SDS011;11449;51.330;19.378;2023-10-19T02:49:30;359.00;;;250.30;;
22565;SDS011;11449;51.330;19.378;2023-10-19T02:54:38;355.30;;;282.80;;
22565;SDS011;11449;51.330;19.378;2023-10-19T02:59:45;343.20;;;252.70;;
22565;SDS011;11449;51.330;19.378;2023-10-19T03:04:54;341.30;;;248.30;;
22565;SDS011;11449;51.330;19.378;2023-10-19T03:10:02;355.10;;;249.00;;
22565;SDS011;11449;51.330;19.378;2023-10-19T03:15:13;696.00;;;634.60;;
22565;SDS011;11449;51.330;19.378;2023-10-19T03:20:21;768.30;;;695.00;;
22565;SDS011;11449;51.330;19.378;2023-10-19T03:30:59;831.50;;;764.40;;
22565;SDS011;11449;51.330;19.378;2023-10-19T03:36:06;879.80;;;810.90;;
22565;SDS011;11449;51.330;19.378;2023-10-19T03:41:20;881.20;;;801.50;;
22565;SDS011;11449;51.330;19.378;2023-10-19T03:46:29;921.80;;;851.20;;
22565;SDS011;11449;51.330;19.378;2023-10-19T03:51:38;942.40;;;868.80;;
22565;SDS011;11449;51.330;19.378;2023-10-19T03:57:06;919.30;;;847.20;;
22565;SDS011;11449;51.330;19.378;2023-10-19T04:02:19;917.20;;;842.60;;
22565;SDS011;11449;51.330;19.378;2023-10-19T04:07:37;905.10;;;835.40;;
22565;SDS011;11449;51.330;19.378;2023-10-19T04:12:44;914.30;;;844.90;;
22565;SDS011;11449;51.330;19.378;2023-10-19T04:17:52;356.60;;;291.10;;
22565;SDS011;11449;51.330;19.378;2023-10-19T04:23:02;363.60;;;296.20;;
22565;SDS011;11449;51.330;19.378;2023-10-19T04:28:22;379.80;;;292.30;;
22565;SDS011;11449;51.330;19.378;2023-10-19T04:33:38;374.60;;;310.00;;
22565;SDS011;11449;51.330;19.378;2023-10-19T04:38:45;384.80;;;312.20;;
22565;SDS011;11449;51.330;19.378;2023-10-19T04:43:53;347.10;;;268.00;;
22565;SDS011;11449;51.330;19.378;2023-10-19T04:49:02;362.00;;;290.10;;
22565;SDS011;11449;51.330;19.378;2023-10-19T04:54:11;432.50;;;352.90;;
22565;SDS011;11449;51.330;19.378;2023-10-19T04:59:19;469.90;;;368.40;;
22565;SDS011;11449;51.330;19.378;2023-10-19T05:04:27;466.70;;;393.50;;
22565;SDS011;11449;51.330;19.378;2023-10-19T05:09:35;430.60;;;349.20;;
22565;SDS011;11449;51.330;19.378;2023-10-19T05:14:46;450.30;;;386.60;;
22565;SDS011;11449;51.330;19.378;2023-10-19T05:19:54;470.90;;;398.40;;
22565;SDS011;11449;51.330;19.378;2023-10-19T05:25:01;435.20;;;353.90;;
22565;SDS011;11449;51.330;19.378;2023-10-19T05:30:09;496.80;;;384.80;;
22565;SDS011;11449;51.330;19.378;2023-10-19T05:35:17;488.50;;;414.80;;
22565;SDS011;11449;51.330;19.378;2023-10-19T05:40:33;396.50;;;304.20;;
22565;SDS011;11449;51.330;19.378;2023-10-19T05:45:43;452.20;;;377.00;;
22565;SDS011;11449;51.330;19.378;2023-10-19T05:50:51;409.30;;;338.40;;
22565;SDS011;11449;51.330;19.378;2023-10-19T05:55:58;409.90;;;356.50;;
22565;SDS011;11449;51.330;19.378;2023-10-19T06:01:06;449.20;;;398.10;;
22565;SDS011;11449;51.330;19.378;2023-10-19T06:06:14;510.70;;;437.70;;
22565;SDS011;11449;51.330;19.378;2023-10-19T06:11:22;612.50;;;548.50;;
22565;SDS011;11449;51.330;19.378;2023-10-19T06:16:30;490.60;;;437.40;;
22565;SDS011;11449;51.330;19.378;2023-10-19T06:21:39;470.80;;;371.70;;
22565;SDS011;11449;51.330;19.378;2023-10-19T06:26:47;471.40;;;350.50;;
22565;SDS011;11449;51.330;19.378;2023-10-19T06:31:50;450.10;;;340.20;;
22565;SDS011;11449;51.330;19.378;2023-10-19T06:36:58;496.50;;;385.30;;
22565;SDS011;11449;51.330;19.378;2023-10-19T06:42:08;515.50;;;387.10;;
22565;SDS011;11449;51.330;19.378;2023-10-19T06:47:21;579.90;;;470.70;;
22565;SDS011;11449;51.330;19.378;2023-10-19T06:52:30;546.10;;;465.20;;
22565;SDS011;11449;51.330;19.378;2023-10-19T06:57:40;515.20;;;431.00;;
22565;SDS011;11449;51.330;19.378;2023-10-19T07:02:50;514.70;;;394.90;;
22565;SDS011;11449;51.330;19.378;2023-10-19T07:07:59;524.20;;;439.70;;
22565;SDS011;11449;51.330;19.378;2023-10-19T07:13:09;529.00;;;398.80;;
22565;SDS011;11449;51.330;19.378;2023-10-19T07:18:16;588.90;;;490.60;;
22565;SDS011;11449;51.330;19.378;2023-10-19T07:23:24;502.60;;;402.00;;
22565;SDS011;11449;51.330;19.378;2023-10-19T07:28:36;498.90;;;392.30;;
22565;SDS011;11449;51.330;19.378;2023-10-19T07:33:45;484.50;;;369.10;;
22565;SDS011;11449;51.330;19.378;2023-10-19T07:38:53;484.60;;;383.50;;
22565;SDS011;11449;51.330;19.378;2023-10-19T07:44:00;522.70;;;435.40;;
22565;SDS011;11449;51.330;19.378;2023-10-19T07:49:08;555.20;;;479.70;;
22565;SDS011;11449;51.330;19.378;2023-10-19T07:54:16;640.20;;;573.50;;
22565;SDS011;11449;51.330;19.378;2023-10-19T07:59:24;546.40;;;457.30;;
22565;SDS011;11449;51.330;19.378;2023-10-19T08:04:31;492.40;;;403.70;;
22565;SDS011;11449;51.330;19.378;2023-10-19T08:09:39;452.40;;;331.20;;
22565;SDS011;11449;51.330;19.378;2023-10-19T08:14:47;481.80;;;370.30;;
22565;SDS011;11449;51.330;19.378;2023-10-19T08:19:56;539.30;;;452.20;;
22565;SDS011;11449;51.330;19.378;2023-10-19T08:25:04;446.50;;;325.10;;
22565;SDS011;11449;51.330;19.378;2023-10-19T08:30:19;636.60;;;554.70;;
22565;SDS011;11449;51.330;19.378;2023-10-19T08:35:28;484.00;;;400.50;;
22565;SDS011;11449;51.330;19.378;2023-10-19T08:40:36;475.90;;;405.20;;
22565;SDS011;11449;51.330;19.378;2023-10-19T08:45:45;454.60;;;368.20;;
22565;SDS011;11449;51.330;19.378;2023-10-19T08:50:53;493.40;;;415.90;;
22565;SDS011;11449;51.330;19.378;2023-10-19T08:56:03;552.10;;;444.10;;
22565;SDS011;11449;51.330;19.378;2023-10-19T09:01:14;611.60;;;542.70;;
22565;SDS011;11449;51.330;19.378;2023-10-19T09:06:22;580.60;;;509.10;;
22565;SDS011;11449;51.330;19.378;2023-10-19T09:11:30;488.70;;;382.50;;
22565;SDS011;11449;51.330;19.378;2023-10-19T09:16:40;538.50;;;444.90;;
22565;SDS011;11449;51.330;19.378;2023-10-19T09:22:03;523.00;;;399.70;;
22565;SDS011;11449;51.330;19.378;2023-10-19T09:27:18;562.80;;;453.60;;
22565;SDS011;11449;51.330;19.378;2023-10-19T09:32:27;524.60;;;437.10;;
22565;SDS011;11449;51.330;19.378;2023-10-19T09:37:37;460.70;;;359.90;;
22565;SDS011;11449;51.330;19.378;2023-10-19T09:42:45;517.80;;;432.60;;
22565;SDS011;11449;51.330;19.378;2023-10-19T09:47:57;568.40;;;445.60;;
22565;SDS011;11449;51.330;19.378;2023-10-19T09:53:09;334.00;;;219.70;;
22565;SDS011;11449;51.330;19.378;2023-10-19T09:58:19;587.50;;;524.10;;
22565;SDS011;11449;51.330;19.378;2023-10-19T10:03:44;1018.60;;;940.10;;
22565;SDS011;11449;51.330;19.378;2023-10-19T10:14:01;1038.30;;;956.60;;
22565;SDS011;11449;51.330;19.378;2023-10-19T10:19:29;1037.20;;;954.10;;
22565;SDS011;11449;51.330;19.378;2023-10-19T10:24:43;1042.30;;;959.00;;
22565;SDS011;11449;51.330;19.378;2023-10-19T10:29:55;1051.30;;;967.00;;
22565;SDS011;11449;51.330;19.378;2023-10-19T10:35:04;1049.10;;;965.30;;
22565;SDS011;11449;51.330;19.378;2023-10-19T10:40:14;609.70;;;524.90;;
22565;SDS011;11449;51.330;19.378;2023-10-19T10:45:23;571.80;;;472.10;;
22565;SDS011;11449;51.330;19.378;2023-10-19T10:50:30;509.30;;;402.60;;
22565;SDS011;11449;51.330;19.378;2023-10-19T10:55:38;503.60;;;423.50;;
22565;SDS011;11449;51.330;19.378;2023-10-19T11:00:47;155.70;;;86.50;;
22565;SDS011;11449;51.330;19.378;2023-10-19T11:06:02;95.40;;;31.40;;
22565;SDS011;11449;51.330;19.378;2023-10-19T11:11:11;291.10;;;198.40;;
22565;SDS011;11449;51.330;19.378;2023-10-19T11:16:21;81.40;;;19.20;;
22565;SDS011;11449;51.330;19.378;2023-10-19T11:21:26;63.60;;;17.70;;
22565;SDS011;11449;51.330;19.378;2023-10-19T11:26:39;73.30;;;18.40;;
22565;SDS011;11449;51.330;19.378;2023-10-19T11:31:56;64.80;;;17.70;;
22565;SDS011;11449;51.330;19.378;2023-10-19T11:37:05;61.10;;;15.90;;
22565;SDS011;11449;51.330;19.378;2023-10-19T11:42:13;77.50;;;17.10;;
22565;SDS011;11449;51.330;19.378;2023-10-19T11:47:21;81.40;;;18.20;;
22565;SDS011;11449;51.330;19.378;2023-10-19T11:52:29;57.50;;;17.70;;
22565;SDS011;11449;51.330;19.378;2023-10-19T11:57:37;70.30;;;18.40;;
22565;SDS011;11449;51.330;19.378;2023-10-19T12:02:45;66.30;;;17.70;;
22565;SDS011;11449;51.330;19.378;2023-10-19T12:07:53;106.00;;;21.10;;
22565;SDS011;11449;51.330;19.378;2023-10-19T12:13:01;58.30;;;17.80;;
22565;SDS011;11449;51.330;19.378;2023-10-19T12:18:10;74.10;;;17.60;;
22565;SDS011;11449;51.330;19.378;2023-10-19T12:23:18;110.90;;;20.70;;
22565;SDS011;11449;51.330;19.378;2023-10-19T12:28:26;302.60;;;228.20;;
22565;SDS011;11449;51.330;19.378;2023-10-19T12:33:33;168.20;;;112.60;;
22565;SDS011;11449;51.330;19.378;2023-10-19T12:38:45;56.30;;;16.70;;
22565;SDS011;11449;51.330;19.378;2023-10-19T12:43:53;56.90;;;17.20;;
22565;SDS011;11449;51.330;19.378;2023-10-19T12:49:16;94.50;;;22.40;;
22565;SDS011;11449;51.330;19.378;2023-10-19T12:54:25;86.70;;;29.60;;
22565;SDS011;11449;51.330;19.378;2023-10-19T12:59:36;81.30;;;26.50;;
22565;SDS011;11449;51.330;19.378;2023-10-19T13:04:46;79.30;;;22.40;;
22565;SDS011;11449;51.330;19.378;2023-10-19T13:09:54;80.70;;;26.30;;
22565;SDS011;11449;51.330;19.378;2023-10-19T13:15:05;68.20;;;20.10;;
22565;SDS011;11449;51.330;19.378;2023-10-19T13:20:20;113.20;;;22.90;;
22565;SDS011;11449;51.330;19.378;2023-10-19T13:25:31;86.00;;;21.60;;
22565;SDS011;11449;51.330;19.378;2023-10-19T13:31:00;165.50;;;89.70;;
22565;SDS011;11449;51.330;19.378;2023-10-19T13:36:08;236.60;;;155.60;;
22565;SDS011;11449;51.330;19.378;2023-10-19T13:41:16;92.60;;;26.10;;
22565;SDS011;11449;51.330;19.378;2023-10-19T13:46:24;74.70;;;25.30;;
22565;SDS011;11449;51.330;19.378;2023-10-19T13:51:32;64.40;;;19.70;;
22565;SDS011;11449;51.330;19.378;2023-10-19T13:56:40;71.50;;;23.10;;
22565;SDS011;11449;51.330;19.378;2023-10-19T14:01:48;62.70;;;20.90;;
22565;SDS011;11449;51.330;19.378;2023-10-19T14:06:56;61.60;;;20.50;;
22565;SDS011;11449;51.330;19.378;2023-10-19T14:12:04;132.60;;;60.20;;
22565;SDS011;11449;51.330;19.378;2023-10-19T14:17:12;366.40;;;274.10;;
22565;SDS011;11449;51.330;19.378;2023-10-19T14:22:20;303.30;;;168.10;;
22565;SDS011;11449;51.330;19.378;2023-10-19T14:27:27;294.20;;;206.90;;
22565;SDS011;11449;51.330;19.378;2023-10-19T14:32:36;91.90;;;23.50;;
22565;SDS011;11449;51.330;19.378;2023-10-19T14:37:45;76.20;;;21.10;;
22565;SDS011;11449;51.330;19.378;2023-10-19T14:42:55;81.70;;;26.20;;
22565;SDS011;11449;51.330;19.378;2023-10-19T14:48:08;83.30;;;24.80;;
22565;SDS011;11449;51.330;19.378;2023-10-19T14:53:18;109.40;;;31.00;;
22565;SDS011;11449;51.330;19.378;2023-10-19T14:58:21;410.40;;;346.60;;
22565;SDS011;11449;51.330;19.378;2023-10-19T15:03:29;67.90;;;19.70;;
22565;SDS011;11449;51.330;19.378;2023-10-19T15:08:37;61.80;;;18.80;;
22565;SDS011;11449;51.330;19.378;2023-10-19T15:13:46;80.50;;;23.10;;
22565;SDS011;11449;51.330;19.378;2023-10-19T15:18:53;121.60;;;39.20;;
22565;SDS011;11449;51.330;19.378;2023-10-19T15:24:01;78.30;;;21.80;;
22565;SDS011;11449;51.330;19.378;2023-10-19T15:29:09;283.20;;;195.70;;
22565;SDS011;11449;51.330;19.378;2023-10-19T15:34:17;309.40;;;239.90;;
22565;SDS011;11449;51.330;19.378;2023-10-19T15:39:27;81.40;;;21.50;;
22565;SDS011;11449;51.330;19.378;2023-10-19T15:44:35;65.50;;;22.10;;
22565;SDS011;11449;51.330;19.378;2023-10-19T15:49:46;78.20;;;27.10;;
22565;SDS011;11449;51.330;19.378;2023-10-19T15:55:00;69.10;;;20.90;;
22565;SDS011;11449;51.330;19.378;2023-10-19T16:00:09;95.00;;;25.90;;
22565;SDS011;11449;51.330;19.378;2023-10-19T16:05:20;100.90;;;23.90;;
22565;SDS011;11449;51.330;19.378;2023-10-19T16:10:28;69.30;;;19.80;;
22565;SDS011;11449;51.330;19.378;2023-10-19T16:15:36;122.10;;;54.30;;
22565;SDS011;11449;51.330;19.378;2023-10-19T16:20:43;92.00;;;23.50;;
22565;SDS011;11449;51.330;19.378;2023-10-19T16:25:58;74.50;;;22.70;;
22565;SDS011;11449;51.330;19.378;2023-10-19T16:31:07;102.60;;;26.30;;
22565;SDS011;11449;51.330;19.378;2023-10-19T16:36:14;619.00;;;561.50;;
22565;SDS011;11449;51.330;19.378;2023-10-19T16:41:22;793.70;;;727.00;;
22565;SDS011;11449;51.330;19.378;2023-10-19T16:46:34;409.10;;;373.30;;
22565;SDS011;11449;51.330;19.378;2023-10-19T16:51:44;81.30;;;25.90;;
22565;SDS011;11449;51.330;19.378;2023-10-19T16:56:51;69.50;;;28.50;;
22565;SDS011;11449;51.330;19.378;2023-10-19T17:01:59;260.20;;;232.60;;
22565;SDS011;11449;51.330;19.378;2023-10-19T17:07:07;877.30;;;808.40;;
22565;SDS011;11449;51.330;19.378;2023-10-19T17:12:15;858.40;;;789.10;;
22565;SDS011;11449;51.330;19.378;2023-10-19T17:17:23;829.80;;;761.90;;
22565;SDS011;11449;51.330;19.378;2023-10-19T17:22:30;99.90;;;46.80;;
22565;SDS011;11449;51.330;19.378;2023-10-19T17:27:41;70.80;;;24.40;;
22565;SDS011;11449;51.330;19.378;2023-10-19T17:32:49;93.00;;;38.30;;
22565;SDS011;11449;51.330;19.378;2023-10-19T17:37:56;72.40;;;25.20;;
22565;SDS011;11449;51.330;19.378;2023-10-19T17:43:05;75.80;;;27.20;;
22565;SDS011;11449;51.330;19.378;2023-10-19T17:48:16;97.40;;;27.20;;
22565;SDS011;11449;51.330;19.378;2023-10-19T17:53:24;83.40;;;25.90;;
22565;SDS011;11449;51.330;19.378;2023-10-19T17:58:32;79.10;;;26.30;;
22565;SDS011;11449;51.330;19.378;2023-10-19T18:03:41;71.60;;;26.00;;
22565;SDS011;11449;51.330;19.378;2023-10-19T18:08:49;79.20;;;26.70;;
22565;SDS011;11449;51.330;19.378;2023-10-19T18:13:57;81.00;;;25.70;;
22565;SDS011;11449;51.330;19.378;2023-10-19T18:19:04;76.70;;;26.10;;
22565;SDS011;11449;51.330;19.378;2023-10-19T18:24:12;104.30;;;34.50;;
22565;SDS011;11449;51.330;19.378;2023-10-19T18:29:21;596.50;;;539.90;;
22565;SDS011;11449;51.330;19.378;2023-10-19T18:34:29;611.60;;;552.90;;
22565;SDS011;11449;51.330;19.378;2023-10-19T18:39:37;528.30;;;479.70;;
22565;SDS011;11449;51.330;19.378;2023-10-19T18:44:44;79.40;;;26.80;;
22565;SDS011;11449;51.330;19.378;2023-10-19T18:49:55;65.40;;;24.90;;
22565;SDS011;11449;51.330;19.378;2023-10-19T18:54:58;68.80;;;26.00;;
22565;SDS011;11449;51.330;19.378;2023-10-19T19:00:07;86.30;;;26.80;;
22565;SDS011;11449;51.330;19.378;2023-10-19T19:05:15;94.50;;;28.40;;
22565;SDS011;11449;51.330;19.378;2023-10-19T19:10:23;98.10;;;29.00;;
22565;SDS011;11449;51.330;19.378;2023-10-19T19:15:31;78.50;;;27.80;;
22565;SDS011;11449;51.330;19.378;2023-10-19T19:20:39;85.20;;;29.00;;
22565;SDS011;11449;51.330;19.378;2023-10-19T19:25:49;70.30;;;26.50;;
22565;SDS011;11449;51.330;19.378;2023-10-19T19:31:01;75.40;;;27.90;;
22565;SDS011;11449;51.330;19.378;2023-10-19T19:36:05;73.00;;;26.50;;
22565;SDS011;11449;51.330;19.378;2023-10-19T19:41:13;133.40;;;44.50;;
22565;SDS011;11449;51.330;19.378;2023-10-19T19:46:21;105.50;;;29.10;;
22565;SDS011;11449;51.330;19.378;2023-10-19T19:51:29;85.50;;;29.20;;
22565;SDS011;11449;51.330;19.378;2023-10-19T19:56:40;89.50;;;29.10;;
22565;SDS011;11449;51.330;19.378;2023-10-19T20:01:48;82.60;;;30.10;;
22565;SDS011;11449;51.330;19.378;2023-10-19T20:06:56;79.10;;;29.20;;
22565;SDS011;11449;51.330;19.378;2023-10-19T20:12:04;88.50;;;29.50;;
22565;SDS011;11449;51.330;19.378;2023-10-19T20:17:14;102.70;;;31.30;;
22565;SDS011;11449;51.330;19.378;2023-10-19T20:22:22;115.90;;;33.40;;
22565;SDS011;11449;51.330;19.378;2023-10-19T20:27:30;97.50;;;31.00;;
22565;SDS011;11449;51.330;19.378;2023-10-19T20:32:39;100.70;;;34.00;;
22565;SDS011;11449;51.330;19.378;2023-10-19T20:37:47;86.50;;;30.40;;
22565;SDS011;11449;51.330;19.378;2023-10-19T20:42:55;91.90;;;30.10;;
22565;SDS011;11449;51.330;19.378;2023-10-19T20:48:05;75.60;;;29.00;;
22565;SDS011;11449;51.330;19.378;2023-10-19T20:53:15;99.70;;;28.60;;
22565;SDS011;11449;51.330;19.378;2023-10-19T20:58:23;87.80;;;31.30;;
22565;SDS011;11449;51.330;19.378;2023-10-19T21:03:31;78.10;;;29.50;;
22565;SDS011;11449;51.330;19.378;2023-10-19T21:08:40;92.80;;;30.90;;
22565;SDS011;11449;51.330;19.378;2023-10-19T21:13:48;82.20;;;30.70;;
22565;SDS011;11449;51.330;19.378;2023-10-19T21:18:56;85.40;;;30.90;;
22565;SDS011;11449;51.330;19.378;2023-10-19T21:24:04;76.40;;;27.60;;
22565;SDS011;11449;51.330;19.378;2023-10-19T21:29:14;98.20;;;30.60;;
22565;SDS011;11449;51.330;19.378;2023-10-19T21:34:22;130.40;;;32.70;;
22565;SDS011;11449;51.330;19.378;2023-10-19T21:39:29;81.20;;;26.60;;
22565;SDS011;11449;51.330;19.378;2023-10-19T21:44:37;71.50;;;26.60;;
22565;SDS011;11449;51.330;19.378;2023-10-19T21:49:48;82.30;;;27.20;;
22565;SDS011;11449;51.330;19.378;2023-10-19T21:54:56;70.30;;;25.90;;
22565;SDS011;11449;51.330;19.378;2023-10-19T22:00:04;79.50;;;27.60;;
22565;SDS011;11449;51.330;19.378;2023-10-19T22:05:13;91.90;;;28.20;;
22565;SDS011;11449;51.330;19.378;2023-10-19T22:10:21;121.00;;;31.40;;
22565;SDS011;11449;51.330;19.378;2023-10-19T22:15:30;90.70;;;31.30;;
22565;SDS011;11449;51.330;19.378;2023-10-19T22:20:40;79.20;;;28.70;;
22565;SDS011;11449;51.330;19.378;2023-10-19T22:25:47;78.00;;;28.00;;
22565;SDS011;11449;51.330;19.378;2023-10-19T22:30:55;87.40;;;27.80;;
22565;SDS011;11449;51.330;19.378;2023-10-19T22:36:03;695.00;;;638.90;;
22565;SDS011;11449;51.330;19.378;2023-10-19T22:41:11;888.60;;;818.10;;
22565;SDS011;11449;51.330;19.378;2023-10-19T22:46:18;952.50;;;872.40;;
22565;SDS011;11449;51.330;19.378;2023-10-19T22:51:26;99.20;;;30.10;;
22565;SDS011;11449;51.330;19.378;2023-10-19T22:56:34;92.00;;;28.30;;
22565;SDS011;11449;51.330;19.378;2023-10-19T23:01:42;104.30;;;34.90;;
22565;SDS011;11449;51.330;19.378;2023-10-19T23:06:50;104.60;;;33.10;;
22565;SDS011;11449;51.330;19.378;2023-10-19T23:11:59;497.70;;;453.40;;
22565;SDS011;11449;51.330;19.378;2023-10-19T23:17:07;88.70;;;30.00;;
22565;SDS011;11449;51.330;19.378;2023-10-19T23:22:16;103.40;;;32.20;;
22565;SDS011;11449;51.330;19.378;2023-10-19T23:27:24;89.50;;;30.80;;
22565;SDS011;11449;51.330;19.378;2023-10-19T23:32:33;81.20;;;29.20;;
22565;SDS011;11449;51.330;19.378;2023-10-19T23:37:42;88.30;;;30.50;;
22565;SDS011;11449;51.330;19.378;2023-10-19T23:42:50;85.60;;;30.60;;
22565;SDS011;11449;51.330;19.378;2023-10-19T23:47:57;104.50;;;38.20;;
22565;SDS011;11449;51.330;19.378;2023-10-19T23:53:05;85.10;;;34.00;;
22565;SDS011;11449;51.330;19.378;2023-10-19T23:58:14;102.40;;;34.70;;
